Time;durP1;ratioP1;P1;durP2;ratioP2;P2;SDS_P1;SDS_P2;PMS_P1;PMS_P2;Temp;Humidity;BMP_temperature;BMP_pressure;BME280_temperature;BME280_humidity;BME280_pressure;Samples;Min_cycle;Max_cycle;Signal;HPM_P1;HPM_P2
2023/02/18 00:00:38;;;;;;;1.23;0.98;;;11.30;80.50;;;;;;5043992;28;20028;-80
2023/02/18 00:03:06;;;;;;;1.00;0.90;;;11.30;80.20;;;;;;5078474;28;20040;-79
2023/02/18 00:05:31;;;;;;;2.35;1.23;;;11.20;80.10;;;;;;5044346;28;20033;-79
2023/02/18 00:07:57;;;;;;;1.08;0.98;;;11.20;80.20;;;;;;5058162;28;20438;-80
2023/02/18 00:10:22;;;;;;;0.90;0.80;;;11.20;80.30;;;;;;5057601;28;20098;-81
2023/02/18 00:12:48;;;;;;;1.38;1.00;;;11.20;80.50;;;;;;5057318;28;20024;-82
2023/02/18 00:15:13;;;;;;;1.50;1.10;;;11.20;80.50;;;;;;5057406;28;20024;-82
2023/02/18 00:17:39;;;;;;;1.67;1.48;;;11.20;80.40;;;;;;5057331;28;20022;-82
2023/02/18 00:20:06;;;;;;;2.65;1.10;;;11.10;80.50;;;;;;5057103;28;20078;-79
2023/02/18 00:22:31;;;;;;;2.53;1.30;;;11.10;79.10;;;;;;5057034;28;20619;-79
2023/02/18 00:24:57;;;;;;;2.22;1.77;;;11.10;79.80;;;;;;5056741;28;20103;-81
2023/02/18 00:27:22;;;;;;;1.58;1.00;;;11.10;80.10;;;;;;5057322;28;20032;-80
2023/02/18 00:29:48;;;;;;;1.85;1.17;;;11.00;80.00;;;;;;5057110;28;20021;-80
2023/02/18 00:32:13;;;;;;;1.52;1.10;;;11.00;79.80;;;;;;5056945;28;20055;-80
2023/02/18 00:34:39;;;;;;;0.95;0.80;;;11.00;79.60;;;;;;5056991;28;20021;-79
2023/02/18 00:37:05;;;;;;;0.73;0.63;;;11.00;78.70;;;;;;5056561;28;20109;-80
2023/02/18 00:39:30;;;;;;;1.58;0.60;;;11.10;78.00;;;;;;5056782;28;20477;-78
2023/02/18 00:41:56;;;;;;;1.00;0.70;;;11.00;77.30;;;;;;5056462;28;20032;-76
2023/02/18 00:44:23;;;;;;;1.45;0.88;;;11.00;77.30;;;;;;5056631;28;20492;-76
2023/02/18 00:46:48;;;;;;;1.55;0.60;;;11.00;76.80;;;;;;5056622;28;20025;-78
2023/02/18 00:49:15;;;;;;;2.60;0.70;;;11.10;76.80;;;;;;5056609;28;20027;-75
2023/02/18 00:51:41;;;;;;;0.68;0.45;;;11.10;76.60;;;;;;5056367;28;20385;-77
2023/02/18 00:54:07;;;;;;;1.20;0.98;;;11.10;76.60;;;;;;5056883;28;20020;-76
2023/02/18 00:56:33;;;;;;;1.00;0.80;;;11.10;76.70;;;;;;5056645;28;20097;-77
2023/02/18 00:58:58;;;;;;;1.45;0.73;;;11.20;75.90;;;;;;5056382;28;20021;-76
2023/02/18 01:01:24;;;;;;;1.27;0.80;;;11.20;75.40;;;;;;5056360;28;20086;-76
2023/02/18 01:03:50;;;;;;;0.50;0.40;;;11.10;75.50;;;;;;5056442;28;20061;-76
2023/02/18 01:06:15;;;;;;;0.73;0.60;;;11.20;75.40;;;;;;5069170;28;20042;-76
2023/02/18 01:08:41;;;;;;;1.00;0.70;;;11.20;75.30;;;;;;5072434;28;20040;-76
2023/02/18 01:11:09;;;;;;;0.40;0.40;;;11.20;75.00;;;;;;5057060;28;20029;-78
2023/02/18 01:13:35;;;;;;;1.00;0.70;;;11.20;74.80;;;;;;5039159;28;20043;-77
2023/02/18 01:16:01;;;;;;;0.50;0.50;;;11.10;74.50;;;;;;5056049;28;20028;-78
2023/02/18 01:18:27;;;;;;;0.73;0.60;;;11.10;74.70;;;;;;5055694;28;20023;-77
2023/02/18 01:20:53;;;;;;;1.38;0.77;;;11.10;74.80;;;;;;5055720;28;20028;-77
2023/02/18 01:23:19;;;;;;;1.35;0.65;;;11.00;74.80;;;;;;5056199;28;20028;-76
2023/02/18 01:25:44;;;;;;;0.68;0.50;;;11.00;74.80;;;;;;5056026;28;20392;-76
2023/02/18 01:28:12;;;;;;;1.60;0.60;;;11.00;75.00;;;;;;5055774;28;20081;-77
2023/02/18 01:30:38;;;;;;;2.13;0.75;;;10.90;75.20;;;;;;5055848;28;20101;-76
2023/02/18 01:33:04;;;;;;;0.50;0.50;;;11.00;75.10;;;;;;5055886;28;20142;-77
2023/02/18 01:35:30;;;;;;;0.57;0.52;;;10.90;75.00;;;;;;5055080;28;20113;-78
2023/02/18 01:37:55;;;;;;;1.05;0.40;;;10.90;75.10;;;;;;5038712;28;20040;-79
2023/02/18 01:40:25;;;;;;;0.70;0.52;;;10.90;74.80;;;;;;5055974;28;20175;-78
2023/02/18 01:42:50;;;;;;;1.40;0.65;;;10.80;74.70;;;;;;5055906;28;20115;-78
2023/02/18 01:45:36;;;;;;;0.43;0.40;;;10.80;74.70;;;;;;5039127;28;20463;-78
2023/02/18 01:48:08;;;;;;;2.40;0.63;;;10.80;74.50;;;;;;5055956;28;20029;-78
2023/02/18 01:50:39;;;;;;;2.33;0.77;;;10.80;74.40;;;;;;5055578;28;20048;-81
2023/02/18 01:53:05;;;;;;;1.13;0.45;;;10.90;74.40;;;;;;5055497;28;20021;-82
2023/02/18 01:55:33;;;;;;;1.25;0.70;;;10.80;74.00;;;;;;5055431;28;20552;-78
2023/02/18 01:57:58;;;;;;;1.50;0.55;;;10.80;74.00;;;;;;5054978;28;20120;-79
2023/02/18 02:00:24;;;;;;;0.32;0.32;;;10.70;74.30;;;;;;5055527;28;20055;-80
2023/02/18 02:02:52;;;;;;;0.30;0.30;;;10.70;74.40;;;;;;5055639;28;20028;-77
2023/02/18 02:05:19;;;;;;;0.20;0.20;;;10.70;74.20;;;;;;5055547;28;20024;-82
2023/02/18 02:07:48;;;;;;;0.77;0.25;;;10.70;74.30;;;;;;5055359;28;20020;-78
2023/02/18 02:10:15;;;;;;;0.82;0.30;;;10.70;74.40;;;;;;5055183;28;20020;-78
2023/02/18 02:13:11;;;;;;;0.30;0.30;;;10.70;74.20;;;;;;5055233;28;20017;-82
2023/02/18 02:15:47;;;;;;;0.60;0.50;;;10.70;74.00;;;;;;5055713;28;20480;-80
2023/02/18 02:18:38;;;;;;;0.30;0.30;;;10.70;74.00;;;;;;5055223;28;20064;-79
2023/02/18 02:21:28;;;;;;;2.08;0.50;;;10.70;73.90;;;;;;5054906;28;20400;-79
2023/02/18 02:24:09;;;;;;;0.70;0.22;;;10.70;73.90;;;;;;5055306;28;20031;-81
2023/02/18 02:27:03;;;;;;;1.05;0.57;;;10.70;73.80;;;;;;5055160;28;20112;-79
2023/02/18 02:29:37;;;;;;;0.40;0.40;;;10.60;73.60;;;;;;5054736;28;20500;-80
2023/02/18 02:32:30;;;;;;;0.32;0.32;;;10.70;73.40;;;;;;5054984;28;20052;-81
2023/02/18 02:35:07;;;;;;;0.55;0.20;;;10.70;73.40;;;;;;5054973;28;20025;-78
2023/02/18 02:37:48;;;;;;;0.65;0.28;;;10.70;73.00;;;;;;5055164;28;20385;-79
2023/02/18 02:40:28;;;;;;;0.38;0.38;;;10.70;73.80;;;;;;5054976;28;20040;-77
2023/02/18 02:43:25;;;;;;;0.32;0.28;;;10.70;72.80;;;;;;5055211;28;20146;-78
2023/02/18 02:46:10;;;;;;;0.10;0.10;;;10.70;72.60;;;;;;5055131;28;20027;-80
2023/02/18 02:48:42;;;;;;;0.40;0.20;;;10.80;73.20;;;;;;5055920;28;20394;-79
2023/02/18 02:51:20;;;;;;;1.27;0.38;;;10.80;72.20;;;;;;5059203;28;20031;-79
2023/02/18 02:53:46;;;;;;;0.52;0.30;;;10.80;72.20;;;;;;5042463;28;20491;-80
2023/02/18 02:56:22;;;;;;;0.65;0.38;;;10.80;72.20;;;;;;5058865;28;20075;-79
2023/02/18 02:59:00;;;;;;;0.50;0.15;;;10.80;72.20;;;;;;5059127;28;20578;-79
2023/02/18 03:01:40;;;;;;;0.20;0.20;;;10.80;72.40;;;;;;5058742;28;20186;-79
2023/02/18 03:04:12;;;;;;;0.52;0.30;;;10.80;72.50;;;;;;5058784;28;20021;-78
2023/02/18 03:07:06;;;;;;;0.20;0.20;;;10.80;72.50;;;;;;5058679;28;20025;-80
2023/02/18 03:10:03;;;;;;;0.43;0.32;;;10.80;72.60;;;;;;5058806;28;20051;-79
2023/02/18 03:12:47;;;;;;;0.45;0.40;;;10.70;72.70;;;;;;5058566;28;20020;-79
2023/02/18 03:15:28;;;;;;;0.50;0.30;;;10.80;72.80;;;;;;5057972;28;20039;-80
2023/02/18 03:18:25;;;;;;;0.40;0.20;;;10.70;72.90;;;;;;5058198;28;20114;-77
2023/02/18 03:20:57;;;;;;;0.40;0.28;;;10.70;73.00;;;;;;5058575;28;20036;-80
2023/02/18 03:23:28;;;;;;;0.60;0.40;;;10.70;73.20;;;;;;5059337;28;20032;-80
2023/02/18 03:25:56;;;;;;;0.68;0.30;;;10.60;73.20;;;;;;5081737;28;20012;-76
2023/02/18 03:28:26;;;;;;;1.10;0.30;;;10.70;73.00;;;;;;5074403;28;20036;-80
2023/02/18 03:31:00;;;;;;;1.10;0.30;;;10.60;73.00;;;;;;5062451;28;20028;-80
2023/02/18 03:33:32;;;;;;;0.20;0.20;;;10.60;73.10;;;;;;5058726;28;20126;-80
2023/02/18 03:35:58;;;;;;;0.20;0.13;;;10.70;72.70;;;;;;5058337;28;20052;-77
2023/02/18 03:38:32;;;;;;;0.70;0.20;;;10.60;72.80;;;;;;5058067;28;20028;-78
2023/02/18 03:40:58;;;;;;;0.68;0.40;;;10.50;72.80;;;;;;5058454;28;20044;-77
2023/02/18 03:43:23;;;;;;;1.48;0.30;;;10.50;72.90;;;;;;5057867;28;20338;-78
2023/02/18 03:45:50;;;;;;;0.57;0.25;;;10.50;73.00;;;;;;5058197;28;20051;-76
2023/02/18 03:48:15;;;;;;;0.65;0.40;;;10.50;73.20;;;;;;5057698;28;20025;-79
2023/02/18 03:50:41;;;;;;;0.60;0.38;;;10.40;73.20;;;;;;5057744;28;20487;-79
2023/02/18 03:53:06;;;;;;;0.70;0.43;;;10.50;73.30;;;;;;5057788;28;20033;-79
2023/02/18 03:55:32;;;;;;;0.40;0.40;;;10.50;73.20;;;;;;5075693;28;20423;-79
2023/02/18 03:57:59;;;;;;;2.00;0.60;;;10.50;73.20;;;;;;5041442;28;20119;-79
2023/02/18 04:00:25;;;;;;;1.25;0.30;;;10.40;73.20;;;;;;5057338;28;20031;-79
2023/02/18 04:02:51;;;;;;;0.77;0.10;;;10.40;73.40;;;;;;5057429;28;20127;-79
2023/02/18 04:05:16;;;;;;;1.52;0.40;;;10.40;73.50;;;;;;5057240;28;20067;-77
2023/02/18 04:07:42;;;;;;;0.75;0.30;;;10.40;73.50;;;;;;5060613;28;20043;-78
2023/02/18 04:10:08;;;;;;;0.50;0.28;;;10.40;73.60;;;;;;5058405;28;20071;-78
2023/02/18 04:12:37;;;;;;;0.20;0.20;;;10.40;73.40;;;;;;5057279;28;20373;-78
2023/02/18 04:15:03;;;;;;;0.20;0.20;;;10.40;73.00;;;;;;5057274;28;20025;-77
2023/02/18 04:17:28;;;;;;;0.30;0.20;;;10.50;73.10;;;;;;5057255;28;20028;-76
2023/02/18 04:19:54;;;;;;;0.20;0.20;;;10.40;72.90;;;;;;5057192;28;20162;-78
2023/02/18 04:22:19;;;;;;;0.73;0.30;;;10.50;72.70;;;;;;5057375;28;20040;-78
2023/02/18 04:24:45;;;;;;;0.52;0.10;;;10.40;72.60;;;;;;5057532;28;20017;-78
2023/02/18 04:27:10;;;;;;;1.63;0.40;;;10.40;72.80;;;;;;5057340;28;20495;-78
2023/02/18 04:29:36;;;;;;;1.67;0.85;;;10.30;73.00;;;;;;5056793;28;20039;-78
2023/02/18 04:32:02;;;;;;;4.00;2.70;;;10.30;73.00;;;;;;5056700;28;20140;-77
2023/02/18 04:34:27;;;;;;;7.88;5.25;;;10.20;73.10;;;;;;5056049;28;20028;-77
2023/02/18 04:36:53;;;;;;;2.53;1.73;;;10.20;73.20;;;;;;5057001;28;20060;-77
2023/02/18 04:39:19;;;;;;;0.32;0.32;;;10.20;73.70;;;;;;5074832;28;20024;-77
2023/02/18 04:41:44;;;;;;;0.63;0.40;;;10.20;74.20;;;;;;5056829;28;20519;-78
2023/02/18 04:44:10;;;;;;;1.33;0.47;;;10.20;74.30;;;;;;5056774;28;20040;-77
2023/02/18 04:46:35;;;;;;;0.65;0.57;;;10.30;74.10;;;;;;5056340;28;20033;-77
2023/02/18 04:49:01;;;;;;;0.50;0.40;;;10.30;75.10;;;;;;5056411;28;20028;-78
2023/02/18 04:51:27;;;;;;;0.47;0.30;;;10.40;74.10;;;;;;5055902;28;20029;-77
2023/02/18 04:53:52;;;;;;;0.38;0.38;;;10.40;74.20;;;;;;5056804;28;20027;-80
2023/02/18 04:56:19;;;;;;;0.45;0.40;;;10.40;73.80;;;;;;5056392;28;20077;-79
2023/02/18 04:58:45;;;;;;;0.22;0.22;;;10.50;73.80;;;;;;5056432;28;20028;-79
2023/02/18 05:01:11;;;;;;;0.88;0.70;;;10.50;73.60;;;;;;5056278;28;20031;-77
2023/02/18 05:03:37;;;;;;;0.80;0.50;;;10.60;73.30;;;;;;5074264;28;20033;-79
2023/02/18 05:06:03;;;;;;;0.40;0.30;;;10.50;73.00;;;;;;5074445;28;20028;-78
2023/02/18 05:08:28;;;;;;;1.20;0.60;;;10.60;72.90;;;;;;5056406;28;20095;-80
2023/02/18 05:10:54;;;;;;;0.47;0.40;;;10.60;72.90;;;;;;5073467;28;20023;-79
2023/02/18 05:13:21;;;;;;;0.30;0.30;;;10.60;72.80;;;;;;5056235;28;20561;-79
2023/02/18 05:15:47;;;;;;;0.63;0.60;;;10.60;73.60;;;;;;5056421;28;20024;-80
2023/02/18 05:18:13;;;;;;;1.50;0.35;;;10.70;72.80;;;;;;5056261;28;20081;-78
2023/02/18 05:20:38;;;;;;;0.85;0.55;;;10.70;72.70;;;;;;5056300;28;20024;-81
2023/02/18 05:23:04;;;;;;;0.90;0.40;;;10.70;72.90;;;;;;5056336;28;20033;-77
2023/02/18 05:25:31;;;;;;;2.33;0.60;;;10.70;72.90;;;;;;5076826;28;20029;-78
2023/02/18 05:27:56;;;;;;;1.85;0.43;;;10.70;72.60;;;;;;5079773;28;20021;-77
2023/02/18 05:30:22;;;;;;;0.85;0.70;;;10.70;72.50;;;;;;5056183;28;20384;-77
2023/02/18 05:32:47;;;;;;;0.52;0.50;;;10.70;72.60;;;;;;5055753;28;20024;-77
2023/02/18 05:35:14;;;;;;;0.40;0.40;;;10.80;72.30;;;;;;5055740;28;20132;-77
2023/02/18 05:37:40;;;;;;;1.73;0.50;;;10.80;72.30;;;;;;5055887;28;20502;-77
2023/02/18 05:40:06;;;;;;;0.85;0.60;;;10.80;72.30;;;;;;5055478;28;20047;-80
2023/02/18 05:42:32;;;;;;;1.08;0.60;;;10.80;72.10;;;;;;5055334;28;20489;-77
2023/02/18 05:44:58;;;;;;;1.45;0.60;;;10.80;72.10;;;;;;5055691;28;20021;-77
2023/02/18 05:47:24;;;;;;;0.80;0.60;;;10.80;72.20;;;;;;5055331;28;20024;-80
2023/02/18 05:49:49;;;;;;;0.47;0.40;;;10.80;72.20;;;;;;5055492;28;20020;-77
2023/02/18 05:52:16;;;;;;;0.80;0.50;;;10.80;72.10;;;;;;5055874;28;20037;-79
2023/02/18 05:54:43;;;;;;;1.10;0.50;;;10.80;72.00;;;;;;5056374;28;20021;-77
2023/02/18 05:57:10;;;;;;;0.50;0.50;;;10.90;72.00;;;;;;5056401;28;20024;-78
2023/02/18 05:59:36;;;;;;;0.57;0.52;;;10.90;71.80;;;;;;5056263;28;20025;-77
2023/02/18 06:02:01;;;;;;;1.58;0.80;;;10.90;71.80;;;;;;5055457;28;20040;-77
2023/02/18 06:04:27;;;;;;;0.93;0.60;;;11.00;71.70;;;;;;5056313;28;20025;-79
2023/02/18 06:06:54;;;;;;;1.17;0.60;;;11.00;71.80;;;;;;5056061;28;20043;-79
2023/02/18 06:09:19;;;;;;;0.93;0.80;;;10.90;71.90;;;;;;5055505;28;20017;-81
2023/02/18 06:11:46;;;;;;;1.02;0.90;;;10.90;71.80;;;;;;5055356;28;20123;-81
2023/02/18 06:14:11;;;;;;;2.28;1.10;;;10.90;71.90;;;;;;5055372;28;20370;-78
2023/02/18 06:16:37;;;;;;;0.75;0.55;;;10.90;71.80;;;;;;5054671;28;20174;-78
2023/02/18 06:19:03;;;;;;;0.75;0.70;;;10.90;71.80;;;;;;5055409;28;20028;-78
2023/02/18 06:21:30;;;;;;;1.27;0.60;;;10.90;71.80;;;;;;5055395;28;20500;-79
2023/02/18 06:23:57;;;;;;;2.40;1.45;;;10.90;71.60;;;;;;5021645;28;20029;-78
2023/02/18 06:26:24;;;;;;;0.68;0.63;;;10.90;71.60;;;;;;5054970;28;20028;-78
2023/02/18 06:28:51;;;;;;;0.88;0.60;;;10.90;71.80;;;;;;5073709;28;20073;-78
2023/02/18 06:31:17;;;;;;;1.73;0.60;;;10.90;71.40;;;;;;5075307;28;20030;-76
2023/02/18 06:33:43;;;;;;;1.13;0.70;;;10.90;71.60;;;;;;5058792;28;20028;-75
2023/02/18 06:36:11;;;;;;;0.77;0.60;;;10.90;71.30;;;;;;5074698;28;20465;-76
2023/02/18 06:38:39;;;;;;;2.38;0.63;;;10.90;71.40;;;;;;5075005;28;20477;-76
2023/02/18 06:41:05;;;;;;;0.60;0.60;;;10.90;71.60;;;;;;5074705;28;20446;-77
2023/02/18 06:43:31;;;;;;;0.70;0.70;;;10.80;71.70;;;;;;5074889;28;20051;-77
2023/02/18 06:45:56;;;;;;;1.48;0.80;;;10.80;71.80;;;;;;5074748;28;20028;-79
2023/02/18 06:48:23;;;;;;;1.00;0.80;;;10.80;71.90;;;;;;5074719;28;20074;-78
2023/02/18 06:50:48;;;;;;;2.42;1.00;;;10.80;71.80;;;;;;5058114;28;20115;-79
2023/02/18 06:53:16;;;;;;;1.83;0.60;;;10.70;71.80;;;;;;5074894;28;20062;-78
2023/02/18 06:55:42;;;;;;;1.40;1.00;;;10.80;71.60;;;;;;5075328;28;20082;-79
2023/02/18 06:58:12;;;;;;;1.10;0.77;;;10.70;71.60;;;;;;5075099;28;20020;-79
2023/02/18 07:00:41;;;;;;;2.13;1.13;;;10.80;71.60;;;;;;5074357;28;20027;-78
2023/02/18 07:03:07;;;;;;;1.75;1.00;;;10.80;70.80;;;;;;5074878;28;20119;-81
2023/02/18 07:05:33;;;;;;;1.08;0.80;;;10.80;70.50;;;;;;5074897;28;20039;-79
2023/02/18 07:08:00;;;;;;;0.95;0.85;;;10.90;70.30;;;;;;5092984;28;20024;-78
2023/02/18 07:10:25;;;;;;;1.30;0.75;;;10.90;70.40;;;;;;5074727;28;20047;-79
2023/02/18 07:12:51;;;;;;;0.68;0.63;;;10.80;70.30;;;;;;5074375;28;20027;-79
2023/02/18 07:15:20;;;;;;;0.75;0.75;;;10.80;69.80;;;;;;5057949;28;20115;-80
2023/02/18 07:17:47;;;;;;;0.90;0.60;;;10.80;69.70;;;;;;5074563;28;20480;-77
2023/02/18 07:20:12;;;;;;;1.10;0.75;;;10.80;69.80;;;;;;5074648;28;20035;-78
2023/02/18 07:22:38;;;;;;;0.60;0.55;;;10.80;69.60;;;;;;5074544;28;20395;-79
2023/02/18 07:25:04;;;;;;;1.20;0.85;;;10.80;69.60;;;;;;5074734;28;20028;-78
2023/02/18 07:27:30;;;;;;;2.05;0.70;;;10.80;69.60;;;;;;5074467;28;20028;-80
2023/02/18 07:29:56;;;;;;;1.17;0.90;;;10.80;69.30;;;;;;5075107;28;20482;-77
2023/02/18 07:32:22;;;;;;;1.63;0.85;;;10.80;69.50;;;;;;5075109;28;20066;-79
2023/02/18 07:34:49;;;;;;;1.23;1.05;;;10.90;69.20;;;;;;5075562;28;20404;-81
2023/02/18 07:37:15;;;;;;;1.15;1.00;;;10.90;68.90;;;;;;5079071;28;20036;-81
2023/02/18 07:39:42;;;;;;;4.82;2.60;;;10.90;68.80;;;;;;5078821;28;20035;-78
2023/02/18 07:42:09;;;;;;;0.98;0.80;;;10.90;68.40;;;;;;5062741;28;20048;-79
2023/02/18 07:44:35;;;;;;;0.77;0.77;;;11.00;68.20;;;;;;5092335;28;20087;-81
2023/02/18 07:47:01;;;;;;;0.73;0.47;;;11.00;68.00;;;;;;5097831;28;20031;-81
2023/02/18 07:49:27;;;;;;;0.85;0.47;;;11.10;68.20;;;;;;5084336;28;20062;-78
2023/02/18 07:51:53;;;;;;;0.93;0.75;;;11.20;67.90;;;;;;5097085;28;20062;-76
2023/02/18 07:54:20;;;;;;;1.95;0.57;;;11.30;67.40;;;;;;5063974;28;20028;-75
2023/02/18 07:56:47;;;;;;;2.28;1.02;;;11.30;67.40;;;;;;5078633;28;20024;-79
2023/02/18 07:59:13;;;;;;;0.65;0.50;;;11.20;67.90;;;;;;5096349;28;20028;-77
2023/02/18 08:01:39;;;;;;;1.10;0.90;;;11.30;67.90;;;;;;5077663;28;20485;-76
2023/02/18 08:04:05;;;;;;;0.85;0.50;;;11.30;68.30;;;;;;5077542;28;20031;-76
2023/02/18 08:06:38;;;;;;;2.13;1.17;;;11.40;68.10;;;;;;5077550;28;20069;-77
2023/02/18 08:09:04;;;;;;;6.55;0.98;;;11.50;67.30;;;;;;5077458;28;20031;-75
2023/02/18 08:11:29;;;;;;;2.05;0.50;;;11.60;67.40;;;;;;5077519;28;20059;-75
2023/02/18 08:13:55;;;;;;;2.05;0.77;;;11.60;66.70;;;;;;5078243;28;20353;-78
2023/02/18 08:16:21;;;;;;;2.13;0.45;;;11.70;67.40;;;;;;5078217;28;20031;-76
2023/02/18 08:18:48;;;;;;;0.70;0.70;;;11.80;66.30;;;;;;5077127;28;20024;-80
2023/02/18 08:21:16;;;;;;;1.52;0.85;;;11.60;66.70;;;;;;5077092;28;20381;-73
2023/02/18 08:23:42;;;;;;;1.50;0.52;;;11.50;67.40;;;;;;5077549;28;20111;-74
2023/02/18 08:26:08;;;;;;;0.75;0.60;;;11.50;67.50;;;;;;5076935;28;20122;-75
2023/02/18 08:28:34;;;;;;;0.50;0.43;;;11.50;68.10;;;;;;5060153;28;20024;-74
2023/02/18 08:31:00;;;;;;;1.00;0.40;;;11.40;68.00;;;;;;5076635;28;20028;-74
2023/02/18 08:33:25;;;;;;;2.15;0.70;;;11.40;68.10;;;;;;5077210;28;20073;-73
2023/02/18 08:35:53;;;;;;;0.60;0.50;;;11.50;67.90;;;;;;5076797;28;20044;-75
2023/02/18 08:38:19;;;;;;;0.52;0.50;;;11.50;67.70;;;;;;5094973;28;20031;-74
2023/02/18 08:40:45;;;;;;;1.25;0.73;;;11.50;67.80;;;;;;5095234;28;20031;-78
2023/02/18 08:43:11;;;;;;;0.95;0.85;;;11.40;67.90;;;;;;5077213;28;20066;-77
2023/02/18 08:45:38;;;;;;;1.40;0.55;;;11.50;68.30;;;;;;5076909;28;20028;-81
2023/02/18 08:48:07;;;;;;;2.13;0.80;;;11.50;68.10;;;;;;5094841;28;20036;-80
2023/02/18 08:50:33;;;;;;;1.38;0.85;;;11.50;67.90;;;;;;5076936;28;20028;-77
2023/02/18 08:53:02;;;;;;;2.28;0.80;;;11.50;67.80;;;;;;5076777;28;20024;-79
2023/02/18 08:55:28;;;;;;;1.35;0.80;;;11.50;67.70;;;;;;5077365;28;20024;-77
2023/02/18 08:57:57;;;;;;;3.03;0.70;;;11.50;67.90;;;;;;5076781;28;20028;-81
2023/02/18 09:00:23;;;;;;;3.03;1.02;;;11.50;67.70;;;;;;5069951;28;20093;-80
2023/02/18 09:02:49;;;;;;;1.75;0.80;;;11.50;67.80;;;;;;5056590;28;20136;-78
2023/02/18 09:05:15;;;;;;;1.75;0.60;;;11.60;67.90;;;;;;5056461;28;20055;-77
2023/02/18 09:07:40;;;;;;;1.00;0.75;;;11.50;67.90;;;;;;5056963;28;20085;-79
2023/02/18 09:10:08;;;;;;;0.95;0.60;;;11.60;67.70;;;;;;5074112;28;20025;-77
2023/02/18 09:12:34;;;;;;;0.60;0.45;;;11.70;67.50;;;;;;5056016;28;20046;-80
2023/02/18 09:14:59;;;;;;;0.90;0.70;;;11.70;67.20;;;;;;5073958;28;20021;-76
2023/02/18 09:17:26;;;;;;;1.10;0.60;;;11.70;67.20;;;;;;5057205;28;20090;-76
2023/02/18 09:19:51;;;;;;;1.48;0.70;;;11.70;67.10;;;;;;5074223;28;20028;-77
2023/02/18 09:22:18;;;;;;;0.57;0.55;;;11.80;67.10;;;;;;5039959;28;20055;-75
2023/02/18 09:24:43;;;;;;;1.38;0.57;;;11.80;66.90;;;;;;5056913;28;20016;-76
2023/02/18 09:27:09;;;;;;;1.23;0.70;;;11.80;66.70;;;;;;5056016;28;20174;-77
2023/02/18 09:29:38;;;;;;;0.60;0.40;;;11.70;66.70;;;;;;5068697;28;20043;-76
2023/02/18 09:32:04;;;;;;;1.92;0.60;;;11.70;67.20;;;;;;5055322;28;20048;-76
2023/02/18 09:34:30;;;;;;;1.10;0.65;;;11.70;67.30;;;;;;5055505;28;20109;-77
2023/02/18 09:36:56;;;;;;;1.38;1.20;;;11.70;67.60;;;;;;5055535;28;20468;-76
2023/02/18 09:39:22;;;;;;;1.58;0.70;;;11.70;67.10;;;;;;5055719;28;20477;-78
2023/02/18 09:41:51;;;;;;;1.70;0.98;;;11.80;66.90;;;;;;5055591;28;20059;-78
2023/02/18 09:44:24;;;;;;;2.67;1.70;;;11.80;66.90;;;;;;5073277;28;20024;-77
2023/02/18 09:47:09;;;;;;;1.02;0.65;;;11.80;66.50;;;;;;5055240;28;20466;-77
2023/02/18 09:49:39;;;;;;;1.52;0.80;;;11.90;66.50;;;;;;5073537;28;20027;-76
2023/02/18 09:52:22;;;;;;;1.15;0.55;;;11.90;66.80;;;;;;5072094;28;20032;-79
2023/02/18 09:54:48;;;;;;;1.02;0.55;;;11.90;66.70;;;;;;5053959;28;20071;-75
2023/02/18 09:57:27;;;;;;;1.00;0.50;;;11.90;66.70;;;;;;5051508;28;20029;-77
2023/02/18 10:00:11;;;;;;;0.77;0.45;;;11.90;66.70;;;;;;5088424;28;20068;-76
2023/02/18 10:02:40;;;;;;;1.60;1.00;;;11.90;66.30;;;;;;5055525;28;20128;-74
2023/02/18 10:05:12;;;;;;;1.23;0.70;;;11.90;66.60;;;;;;5054523;28;20017;-79
2023/02/18 10:07:39;;;;;;;0.93;0.60;;;12.00;66.00;;;;;;5055533;28;20480;-77
2023/02/18 10:10:41;;;;;;;1.02;0.57;;;11.90;65.90;;;;;;5055028;28;20495;-77
2023/02/18 10:13:16;;;;;;;2.08;0.70;;;12.00;65.90;;;;;;5067243;28;20036;-79
2023/02/18 10:15:43;;;;;;;1.92;0.60;;;12.00;65.60;;;;;;5055317;28;20017;-77
2023/02/18 10:18:31;;;;;;;0.80;0.60;;;12.00;65.60;;;;;;5055711;28;20060;-78
2023/02/18 10:21:01;;;;;;;0.68;0.68;;;12.00;65.40;;;;;;5274839;22;20135;-79
2023/02/18 10:23:28;;;;;;;2.60;0.60;;;12.10;66.10;;;;;;5073299;28;20107;-77
2023/02/18 10:25:56;;;;;;;2.70;0.70;;;12.10;65.60;;;;;;5054669;28;20112;-79
2023/02/18 10:28:23;;;;;;;1.15;0.47;;;12.10;65.30;;;;;;5072763;28;20028;-79
2023/02/18 10:30:58;;;;;;;0.82;0.43;;;12.10;65.00;;;;;;5072874;28;20024;-79
2023/02/18 10:33:33;;;;;;;3.43;0.60;;;12.10;65.50;;;;;;5054706;28;20032;-77
2023/02/18 10:36:23;;;;;;;2.35;0.60;;;12.10;64.40;;;;;;5072410;28;20048;-77
2023/02/18 10:39:04;;;;;;;0.85;0.50;;;12.30;63.90;;;;;;5054753;28;20024;-78
2023/02/18 10:41:38;;;;;;;2.13;0.60;;;12.40;63.70;;;;;;5054674;28;20132;-78
2023/02/18 10:44:14;;;;;;;0.68;0.50;;;12.50;63.50;;;;;;5054384;28;20078;-77
2023/02/18 10:46:52;;;;;;;5.20;1.00;;;12.70;62.70;;;;;;5054128;28;20125;-77
2023/02/18 10:49:48;;;;;;;0.90;0.50;;;12.80;61.90;;;;;;5072458;28;20025;-78
2023/02/18 10:52:17;;;;;;;1.40;0.95;;;12.90;61.70;;;;;;5072116;28;20392;-79
2023/02/18 10:55:05;;;;;;;2.35;0.80;;;13.10;61.50;;;;;;5071875;28;20111;-80
2023/02/18 10:57:32;;;;;;;0.73;0.60;;;13.20;61.00;;;;;;5072138;28;20020;-79
2023/02/18 11:00:09;;;;;;;3.45;0.57;;;13.40;59.60;;;;;;5053284;28;20553;-78
2023/02/18 11:02:35;;;;;;;2.05;0.47;;;13.60;58.90;;;;;;5051685;28;20173;-76
2023/02/18 11:05:17;;;;;;;2.17;0.60;;;13.60;59.20;;;;;;5053046;28;20020;-78
2023/02/18 11:07:47;;;;;;;1.08;0.57;;;13.80;58.70;;;;;;5053357;28;20121;-78
2023/02/18 11:10:21;;;;;;;1.02;0.77;;;13.80;58.60;;;;;;5054938;28;20017;-77
2023/02/18 11:12:54;;;;;;;0.65;0.45;;;13.70;58.50;;;;;;5054975;28;20028;-81
2023/02/18 11:15:23;;;;;;;1.13;0.50;;;13.30;59.00;;;;;;5058531;28;20028;-77
2023/02/18 11:17:52;;;;;;;0.70;0.47;;;13.10;60.10;;;;;;5058337;28;20035;-78
2023/02/18 11:20:29;;;;;;;5.03;1.00;;;13.00;60.40;;;;;;5058227;28;20027;-78
2023/02/18 11:23:06;;;;;;;0.63;0.47;;;12.90;60.90;;;;;;5058170;28;20131;-80
2023/02/18 11:25:38;;;;;;;1.45;0.82;;;13.10;60.60;;;;;;5057881;28;20024;-80
2023/02/18 11:28:07;;;;;;;5.57;0.63;;;13.10;60.60;;;;;;5075691;28;20031;-78
2023/02/18 11:30:42;;;;;;;1.05;0.57;;;12.90;60.50;;;;;;5058053;28;20111;-78
2023/02/18 11:33:21;;;;;;;1.27;0.47;;;12.70;61.60;;;;;;5058066;28;20361;-80
2023/02/18 11:35:55;;;;;;;3.20;0.73;;;12.60;61.60;;;;;;5058390;28;20449;-77
2023/02/18 11:38:26;;;;;;;0.73;0.50;;;12.80;61.00;;;;;;5058565;28;20499;-78
2023/02/18 11:41:02;;;;;;;3.08;0.68;;;12.80;60.50;;;;;;5076129;28;20086;-79
2023/02/18 11:43:30;;;;;;;1.45;0.63;;;12.90;60.80;;;;;;5057979;28;20063;-80
2023/02/18 11:46:09;;;;;;;4.90;0.60;;;12.90;60.50;;;;;;5057645;28;20506;-77
2023/02/18 11:48:36;;;;;;;1.00;0.55;;;13.00;59.60;;;;;;5075684;28;20090;-80
2023/02/18 11:51:04;;;;;;;0.40;0.40;;;13.00;59.80;;;;;;5057581;28;20116;-80
2023/02/18 11:53:36;;;;;;;2.72;0.50;;;12.90;60.00;;;;;;5057435;28;20524;-82
2023/02/18 11:56:15;;;;;;;3.00;0.40;;;12.70;60.30;;;;;;5057768;28;20037;-79
2023/02/18 11:58:46;;;;;;;0.82;0.60;;;12.70;60.10;;;;;;5041964;28;20028;-80
2023/02/18 12:01:20;;;;;;;1.10;0.70;;;12.70;60.30;;;;;;5040747;28;20448;-80
2023/02/18 12:03:54;;;;;;;1.65;0.73;;;12.70;59.80;;;;;;5057523;28;20435;-79
2023/02/18 12:06:36;;;;;;;3.88;0.50;;;12.80;60.00;;;;;;5057588;28;20119;-79
2023/02/18 12:09:30;;;;;;;1.67;0.90;;;12.90;59.80;;;;;;5057524;28;20035;-79
2023/02/18 12:12:13;;;;;;;0.65;0.57;;;13.00;59.00;;;;;;5057181;28;20489;-78
2023/02/18 12:14:39;;;;;;;0.50;0.50;;;13.00;58.90;;;;;;5057066;28;20119;-77
2023/02/18 12:17:25;;;;;;;0.60;0.40;;;13.10;58.80;;;;;;5056002;28;20100;-79
2023/02/18 12:19:59;;;;;;;1.35;0.80;;;13.00;58.20;;;;;;5055713;28;20054;-76
2023/02/18 12:22:37;;;;;;;1.30;0.63;;;13.00;57.50;;;;;;5055592;28;20078;-76
2023/02/18 12:25:16;;;;;;;2.25;0.60;;;12.80;57.60;;;;;;5072577;28;20050;-76
2023/02/18 12:28:09;;;;;;;2.25;0.80;;;12.80;57.30;;;;;;5054456;28;20048;-79
2023/02/18 12:30:47;;;;;;;0.68;0.47;;;12.80;57.40;;;;;;5055483;28;20017;-79
2023/02/18 12:33:33;;;;;;;1.60;0.82;;;12.80;57.50;;;;;;5071022;28;20044;-75
2023/02/18 12:36:12;;;;;;;2.97;0.75;;;12.70;57.30;;;;;;5071170;28;20027;-76
2023/02/18 12:39:02;;;;;;;2.63;0.60;;;12.70;57.00;;;;;;5053834;28;20032;-76
2023/02/18 12:41:42;;;;;;;1.35;0.70;;;12.70;56.90;;;;;;5055627;28;20040;-78
2023/02/18 12:44:26;;;;;;;1.65;0.80;;;12.70;57.40;;;;;;5074698;28;20051;-77
2023/02/18 12:47:16;;;;;;;1.15;0.65;;;12.70;57.60;;;;;;5074450;28;20502;-77
2023/02/18 12:50:21;;;;;;;2.88;1.25;;;12.70;57.70;;;;;;5056562;28;20050;-77
2023/02/18 12:53:12;;;;;;;1.80;0.70;;;12.70;57.90;;;;;;5056285;28;20036;-78
2023/02/18 12:55:40;;;;;;;1.25;0.75;;;12.70;57.90;;;;;;5074169;28;20025;-78
2023/02/18 12:58:24;;;;;;;1.13;0.68;;;12.80;57.70;;;;;;5056536;28;20024;-78
2023/02/18 13:01:08;;;;;;;3.22;0.93;;;12.80;57.70;;;;;;5072889;28;20026;-76
2023/02/18 13:03:52;;;;;;;5.18;0.70;;;12.80;57.50;;;;;;5074416;28;20029;-78